Weitchpec, California
Current Conditions -  °F | °C
As of 2:53 AM on Saturday 25 Oct 2014 (Local Time) from KACV Reporting Station
Moderate Rain Moderate Rain  
Wind Chill: 58°   Ceiling: 5000
Heat Index: 58°   Visibility: 5mi
Dew Point: 56°   Wind: 23mph
Humidity: 93%   Direction: 150°SSE
Pressure: 29.64"   Gusts: 33mph
Location:  41.4038°N, 123.781°W
Report Text: KACV 250953Z AUTO 15020G29KT 5SM RA BR FEW013 BKN050 OVC070 14/13 A2964 RMK AO2 PK WND 22031/0904 RAB0854 SLP040 P0013 T01440133
Loading
Personal Weather Stations






























Interactive Weather Map
Tropical Storm Tracking
New forecast layout! Learn more

10-Day Weather Forecast

Advertisements
Track Severe Weather on mobile